createdAt,value
2022-09-11T00:07:34.788Z,100.00
2022-09-11T00:17:56.947Z,100.00
2022-09-11T00:28:21.532Z,100.00
2022-09-11T00:38:43.464Z,100.00
2022-09-11T00:49:16.714Z,100.00
2022-09-11T00:59:41.793Z,100.00
2022-09-11T01:10:05.864Z,100.00
2022-09-11T01:20:47.033Z,100.00
2022-09-11T01:31:10.971Z,100.00
2022-09-11T01:41:40.582Z,100.00
2022-09-11T01:52:07.600Z,100.00
2022-09-11T02:02:49.767Z,100.00
2022-09-11T02:13:18.556Z,100.00
2022-09-11T02:23:40.148Z,100.00
2022-09-11T02:34:01.939Z,100.00
2022-09-11T02:44:50.258Z,100.00
2022-09-11T02:55:30.169Z,100.00
2022-09-11T03:05:51.735Z,100.00
2022-09-11T03:16:13.136Z,100.00
2022-09-11T03:26:35.842Z,100.00
2022-09-11T03:36:57.314Z,100.00
2022-09-11T03:47:20.421Z,100.00
2022-09-11T03:57:42.171Z,100.00
2022-09-11T04:08:04.444Z,100.00
2022-09-11T04:18:26.035Z,100.00
2022-09-11T04:28:47.424Z,100.00
2022-09-11T04:39:09.718Z,100.00
2022-09-11T04:49:31.270Z,100.00
2022-09-11T04:59:53.009Z,100.00
2022-09-11T05:10:14.460Z,100.00
2022-09-11T05:20:35.911Z,100.00
2022-09-11T05:30:59.035Z,100.00
2022-09-11T05:41:21.101Z,100.00
2022-09-11T05:51:42.680Z,100.00
2022-09-11T06:02:04.390Z,100.00
2022-09-11T06:12:27.327Z,100.00
2022-09-11T06:22:48.802Z,100.00
2022-09-11T06:33:10.443Z,100.00
2022-09-11T06:43:33.003Z,100.00
2022-09-11T06:53:58.359Z,100.00
2022-09-11T07:04:20.044Z,100.00
2022-09-11T07:14:41.491Z,100.00
2022-09-11T07:25:07.453Z,100.00
2022-09-11T07:35:29.186Z,100.00
2022-09-11T07:45:53.553Z,100.00
2022-09-11T07:56:20.359Z,100.00
2022-09-11T08:06:42.463Z,100.00
2022-09-11T08:17:03.910Z,100.00
2022-09-11T08:27:25.296Z,100.00
2022-09-11T08:37:46.827Z,100.00
2022-09-11T08:48:11.281Z,100.00
2022-09-11T08:58:51.336Z,100.00
2022-09-11T09:09:25.484Z,100.00
2022-09-11T09:19:56.946Z,100.00
2022-09-11T09:30:27.255Z,100.00
2022-09-11T09:40:59.586Z,100.00
2022-09-11T09:51:21.075Z,100.00
2022-09-11T10:01:48.314Z,100.00
2022-09-11T10:12:16.681Z,100.00
2022-09-11T10:22:38.164Z,99.12
2022-09-11T10:33:03.830Z,95.81
2022-09-11T10:43:40.066Z,90.72
2022-09-11T10:54:16.893Z,88.61
2022-09-11T11:04:38.419Z,81.48
2022-09-11T11:15:27.037Z,87.39
2022-09-11T11:26:06.626Z,83.61
2022-09-11T11:36:39.473Z,78.18
2022-09-11T11:47:05.586Z,74.46
2022-09-11T11:57:33.990Z,73.48
2022-09-11T12:07:55.655Z,77.78
2022-09-11T12:18:24.813Z,75.37
2022-09-11T12:28:47.201Z,71.11
2022-09-11T12:39:18.185Z,75.45
2022-09-11T12:49:40.834Z,73.96
2022-09-11T13:00:11.799Z,74.94
2022-09-11T13:10:36.593Z,72.71
2022-09-11T13:21:26.368Z,70.03
2022-09-11T13:31:48.657Z,72.70
2022-09-11T13:42:17.054Z,71.28
2022-09-11T13:52:40.742Z,71.02
2022-09-11T14:03:02.506Z,70.62
2022-09-11T14:13:33.193Z,70.66
2022-09-11T14:23:58.690Z,70.47
2022-09-11T14:34:27.730Z,69.14
2022-09-11T14:44:49.522Z,68.30
2022-09-11T14:55:16.051Z,66.41
2022-09-11T15:05:38.029Z,65.86
2022-09-11T15:15:59.549Z,65.40
2022-09-11T15:26:21.208Z,68.46
2022-09-11T15:36:43.541Z,67.70
2022-09-11T15:47:05.167Z,67.43
2022-09-11T15:57:28.532Z,68.31
2022-09-11T16:07:50.090Z,65.61
2022-09-11T16:18:12.028Z,68.22
2022-09-11T16:28:36.327Z,70.09
2022-09-11T16:38:57.786Z,70.67
2022-09-11T16:49:19.421Z,70.61
2022-09-11T16:59:40.899Z,70.59
2022-09-11T17:10:03.275Z,72.72
2022-09-11T17:20:24.748Z,71.71
2022-09-11T17:30:46.829Z,73.18
2022-09-11T17:41:09.432Z,74.73
2022-09-11T17:51:30.925Z,77.35
2022-09-11T18:01:52.441Z,79.17
2022-09-11T18:12:14.597Z,81.74
2022-09-11T18:22:39.736Z,82.18
2022-09-11T18:33:01.495Z,85.10
2022-09-11T18:43:23.003Z,86.23
2022-09-11T18:53:47.292Z,86.45
2022-09-11T19:04:11.495Z,87.65
2022-09-11T19:14:33.306Z,87.36
2022-09-11T19:24:54.937Z,87.05
2022-09-11T19:35:17.575Z,89.29
2022-09-11T19:45:39.668Z,89.44
2022-09-11T19:56:01.612Z,90.96
2022-09-11T20:06:25.699Z,91.50
2022-09-11T20:16:47.277Z,92.71
2022-09-11T20:27:08.755Z,93.46
2022-09-11T20:37:30.446Z,93.55
2022-09-11T20:47:53.341Z,94.82
2022-09-11T20:58:14.915Z,95.79
2022-09-11T21:08:36.456Z,95.87
2022-09-11T21:18:59.358Z,97.42
2022-09-11T21:29:20.956Z,99.46
2022-09-11T21:39:42.529Z,100.00
2022-09-11T21:50:07.004Z,99.72
2022-09-11T22:00:28.462Z,100.00
2022-09-11T22:10:50.992Z,100.00
2022-09-11T22:21:12.589Z,100.00
2022-09-11T22:31:34.143Z,100.00
2022-09-11T22:41:55.667Z,100.00
2022-09-11T22:52:17.130Z,100.00
2022-09-11T23:02:38.668Z,100.00
2022-09-11T23:13:00.134Z,100.00
2022-09-11T23:23:21.779Z,100.00
2022-09-11T23:33:43.256Z,100.00
2022-09-11T23:44:05.361Z,100.00
2022-09-11T23:54:26.813Z,100.00
